createdAt,value
2018-08-09T00:01:50.373Z,23.40
2018-08-09T00:04:18.199Z,23.40
2018-08-09T00:06:45.671Z,23.40
2018-08-09T00:09:13.105Z,23.40
2018-08-09T00:11:40.883Z,23.50
2018-08-09T00:14:08.759Z,23.50
2018-08-09T00:16:36.107Z,23.50
2018-08-09T00:19:03.517Z,23.40
2018-08-09T00:21:31.157Z,23.20
2018-08-09T00:23:58.542Z,23.20
2018-08-09T00:26:25.976Z,23.30
2018-08-09T00:28:53.392Z,23.30
2018-08-09T00:31:20.816Z,23.30
2018-08-09T00:33:48.208Z,23.20
2018-08-09T00:36:15.596Z,23.10
2018-08-09T00:38:43.072Z,23.10
2018-08-09T00:41:10.409Z,23.00
2018-08-09T00:43:37.794Z,23.00
2018-08-09T00:46:05.528Z,23.00
2018-08-09T00:48:32.980Z,23.00
2018-08-09T00:51:00.315Z,22.80
2018-08-09T00:53:27.828Z,22.80
2018-08-09T00:55:55.221Z,22.70
2018-08-09T00:58:22.751Z,22.70
2018-08-09T01:00:50.121Z,22.60
2018-08-09T01:03:17.513Z,22.60
2018-08-09T01:05:44.838Z,22.60
2018-08-09T01:08:12.212Z,22.60
2018-08-09T01:10:39.677Z,22.60
2018-08-09T01:13:07.045Z,22.50
2018-08-09T01:15:34.480Z,22.60
2018-08-09T01:18:01.925Z,22.50
2018-08-09T01:20:29.372Z,22.50
2018-08-09T01:22:56.776Z,22.40
2018-08-09T01:25:24.246Z,22.40
2018-08-09T01:27:51.638Z,22.40
2018-08-09T01:30:19.075Z,22.40
2018-08-09T01:32:46.409Z,22.40
2018-08-09T01:35:13.827Z,22.20
2018-08-09T01:37:41.171Z,22.20
2018-08-09T01:40:08.661Z,22.10
2018-08-09T01:43:48.253Z,22.00
2018-08-09T01:46:15.534Z,22.10
2018-08-09T01:48:43.010Z,22.10
2018-08-09T01:51:10.310Z,22.10
2018-08-09T01:53:37.661Z,22.00
2018-08-09T01:56:05.109Z,22.00
2018-08-09T01:58:32.521Z,21.80
2018-08-09T02:00:59.877Z,21.50
2018-08-09T02:03:27.241Z,21.20
2018-08-09T02:05:54.629Z,21.20
2018-08-09T02:08:22.032Z,21.20
2018-08-09T02:10:49.409Z,21.20
2018-08-09T02:13:16.797Z,21.10
2018-08-09T02:15:44.245Z,21.10
2018-08-09T02:18:11.645Z,21.30
2018-08-09T02:20:39.013Z,21.40
2018-08-09T02:23:06.379Z,21.50
2018-08-09T02:25:33.715Z,21.40
2018-08-09T02:28:01.047Z,21.40
2018-08-09T02:30:28.445Z,21.40
2018-08-09T02:32:55.743Z,21.40
2018-08-09T02:35:23.135Z,21.30
2018-08-09T02:37:50.536Z,21.20
2018-08-09T02:40:17.978Z,21.30
2018-08-09T02:42:45.270Z,21.30
2018-08-09T02:45:12.693Z,21.30
2018-08-09T02:47:40.138Z,21.20
2018-08-09T02:50:07.522Z,21.40
2018-08-09T02:52:34.899Z,21.40
2018-08-09T02:55:02.304Z,21.50
2018-08-09T02:57:29.634Z,21.50
2018-08-09T02:59:56.997Z,21.40
2018-08-09T03:02:24.326Z,21.50
2018-08-09T03:04:51.697Z,21.40
2018-08-09T03:07:19.150Z,21.30
2018-08-09T03:09:46.642Z,21.10
2018-08-09T03:12:14.075Z,21.00
2018-08-09T03:14:41.491Z,21.00
2018-08-09T03:17:09.158Z,20.80
2018-08-09T03:19:36.528Z,20.80
2018-08-09T03:22:04.269Z,20.90
2018-08-09T03:24:31.701Z,21.00
2018-08-09T03:26:59.010Z,20.90
2018-08-09T03:29:26.355Z,21.00
2018-08-09T03:31:53.754Z,21.10
2018-08-09T03:34:21.118Z,21.10
2018-08-09T03:36:48.618Z,21.10
2018-08-09T03:39:16.060Z,21.20
2018-08-09T03:41:43.432Z,21.20
2018-08-09T03:44:10.882Z,21.10
2018-08-09T03:46:38.229Z,21.10
2018-08-09T03:49:05.745Z,21.00
2018-08-09T03:51:33.108Z,21.10
2018-08-09T03:54:00.684Z,21.10
2018-08-09T03:56:28.263Z,21.10
2018-08-09T03:58:55.598Z,21.00
2018-08-09T04:01:22.978Z,21.00
2018-08-09T04:03:50.426Z,21.00
2018-08-09T04:06:17.768Z,21.00
2018-08-09T04:08:45.146Z,21.10
2018-08-09T04:11:12.577Z,21.10
2018-08-09T04:13:39.968Z,21.00
2018-08-09T04:16:07.415Z,21.00
2018-08-09T04:18:34.921Z,21.00
2018-08-09T04:21:02.314Z,21.00
2018-08-09T04:23:29.723Z,21.00
2018-08-09T04:25:57.201Z,21.00
2018-08-09T04:28:24.605Z,20.80
2018-08-09T04:30:51.952Z,20.90
2018-08-09T04:33:19.345Z,20.90
2018-08-09T04:35:46.801Z,20.80
2018-08-09T04:38:14.330Z,20.60
2018-08-09T04:41:02.004Z,20.70
2018-08-09T04:43:29.471Z,20.90
2018-08-09T04:46:07.072Z,20.80
2018-08-09T04:48:34.501Z,20.70
2018-08-09T04:51:01.927Z,20.60
2018-08-09T04:53:29.313Z,20.60
2018-08-09T04:55:56.695Z,20.60
2018-08-09T04:58:56.420Z,20.60
2018-08-09T05:01:24.374Z,20.60
2018-08-09T05:03:51.744Z,20.70
2018-08-09T05:06:19.262Z,20.80
2018-08-09T05:08:46.593Z,20.90
2018-08-09T05:11:13.978Z,21.00
2018-08-09T05:13:41.369Z,21.10
2018-08-09T05:16:08.712Z,21.20
2018-08-09T05:18:36.057Z,21.20
2018-08-09T05:21:03.438Z,21.10
2018-08-09T05:23:30.897Z,21.20
2018-08-09T05:25:58.253Z,21.30
2018-08-09T05:28:31.634Z,21.30
2018-08-09T05:30:59.098Z,21.40
2018-08-09T05:33:26.493Z,21.50
2018-08-09T05:35:54.341Z,21.50
2018-08-09T05:38:21.813Z,21.60
2018-08-09T05:40:49.247Z,21.70
2018-08-09T05:43:16.758Z,21.80
2018-08-09T05:45:44.269Z,22.00
2018-08-09T05:48:11.688Z,22.00
2018-08-09T05:50:44.893Z,22.10
2018-08-09T05:53:12.515Z,22.20
2018-08-09T05:55:40.288Z,22.40
2018-08-09T05:58:08.891Z,22.40
2018-08-09T06:00:44.940Z,22.50
2018-08-09T06:03:12.394Z,22.50
2018-08-09T06:06:01.294Z,22.50
2018-08-09T06:08:28.728Z,22.40
2018-08-09T06:10:56.221Z,22.50
2018-08-09T06:13:38.057Z,22.50
2018-08-09T06:16:05.737Z,22.80
2018-08-09T06:18:33.022Z,23.10
2018-08-09T06:21:00.516Z,23.20
2018-08-09T06:23:28.006Z,23.20
2018-08-09T06:25:55.307Z,23.30
2018-08-09T06:28:22.674Z,23.40
2018-08-09T06:30:50.149Z,23.50
2018-08-09T06:33:17.609Z,23.50
2018-08-09T06:35:45.629Z,23.70
2018-08-09T06:38:13.133Z,23.80
2018-08-09T06:40:40.630Z,23.80
2018-08-09T06:43:08.129Z,23.90
2018-08-09T06:45:35.560Z,24.00
2018-08-09T06:48:02.966Z,24.30
2018-08-09T06:50:30.321Z,24.30
2018-08-09T06:52:57.680Z,24.60
2018-08-09T06:55:25.174Z,24.50
2018-08-09T06:57:52.682Z,24.60
2018-08-09T07:00:20.193Z,24.80
2018-08-09T07:02:47.553Z,24.80
2018-08-09T07:05:14.949Z,25.00
2018-08-09T07:07:42.293Z,25.20
2018-08-09T07:10:10.233Z,25.20
2018-08-09T07:12:37.725Z,25.30
2018-08-09T07:15:08.057Z,25.50
2018-08-09T07:17:35.482Z,25.70
2018-08-09T07:20:03.108Z,25.60
2018-08-09T07:22:30.399Z,25.70
2018-08-09T07:24:57.733Z,25.80
2018-08-09T07:27:25.087Z,25.90
2018-08-09T07:29:52.509Z,26.10
2018-08-09T07:32:19.883Z,26.10
2018-08-09T07:34:47.344Z,26.20
2018-08-09T07:37:14.710Z,26.60
2018-08-09T07:39:42.186Z,26.70
2018-08-09T07:42:09.646Z,26.80
2018-08-09T07:44:36.967Z,26.90
2018-08-09T07:47:04.397Z,26.80
2018-08-09T07:49:31.836Z,26.90
2018-08-09T07:51:59.344Z,27.10
2018-08-09T07:54:26.703Z,27.10
2018-08-09T07:56:54.088Z,27.30
2018-08-09T07:59:21.441Z,27.40
2018-08-09T08:01:49.031Z,27.40
2018-08-09T08:04:16.409Z,27.70
2018-08-09T08:06:43.879Z,28.00
2018-08-09T08:09:12.004Z,27.90
2018-08-09T08:11:39.431Z,28.00
2018-08-09T08:14:07.297Z,27.90
2018-08-09T08:16:34.652Z,28.20
2018-08-09T08:19:02.000Z,28.30
2018-08-09T08:21:29.351Z,28.30
2018-08-09T08:23:56.745Z,28.40
2018-08-09T08:26:24.054Z,28.50
2018-08-09T08:28:52.441Z,28.60
2018-08-09T08:31:19.834Z,28.60
2018-08-09T08:33:47.134Z,28.90
2018-08-09T08:36:14.488Z,28.90
2018-08-09T08:38:41.806Z,29.00
2018-08-09T08:41:09.193Z,28.90
2018-08-09T08:43:36.616Z,29.10
2018-08-09T08:46:04.444Z,29.20
2018-08-09T08:48:31.778Z,29.40
2018-08-09T08:50:59.980Z,29.50
2018-08-09T08:53:27.481Z,29.60
2018-08-09T08:55:54.956Z,29.80
2018-08-09T08:58:22.389Z,30.00
2018-08-09T09:00:49.922Z,30.00
2018-08-09T09:03:17.319Z,30.30
2018-08-09T09:05:44.742Z,30.20
2018-08-09T09:08:12.166Z,30.20
2018-08-09T09:10:39.564Z,30.30
2018-08-09T09:13:07.122Z,30.20
2018-08-09T09:15:34.580Z,30.30
2018-08-09T09:18:01.994Z,30.40
2018-08-09T09:20:29.394Z,30.60
2018-08-09T09:22:56.901Z,30.80
2018-08-09T09:25:24.362Z,31.00
2018-08-09T09:27:51.772Z,31.00
2018-08-09T09:30:19.224Z,31.00
2018-08-09T09:32:46.976Z,31.10
2018-08-09T09:35:14.458Z,31.20
2018-08-09T09:37:42.169Z,31.30
2018-08-09T09:40:09.912Z,31.40
2018-08-09T09:42:37.912Z,31.60
2018-08-09T09:45:05.989Z,31.80
2018-08-09T09:47:33.359Z,31.90
2018-08-09T09:50:00.863Z,31.80
2018-08-09T09:52:28.249Z,31.50
2018-08-09T09:54:55.678Z,31.60
2018-08-09T09:57:23.074Z,32.00
2018-08-09T09:59:50.423Z,32.10
2018-08-09T10:02:17.765Z,32.00
2018-08-09T10:04:45.071Z,32.30
2018-08-09T10:07:12.596Z,32.30
2018-08-09T10:09:39.925Z,32.40
2018-08-09T10:12:07.385Z,32.40
2018-08-09T10:14:34.861Z,32.50
2018-08-09T10:17:02.334Z,32.10
2018-08-09T10:19:29.723Z,32.20
2018-08-09T10:21:57.052Z,32.30
2018-08-09T10:24:24.421Z,32.50
2018-08-09T10:26:51.843Z,32.60
2018-08-09T10:29:19.297Z,32.60
2018-08-09T10:31:46.575Z,32.60
2018-08-09T10:34:13.975Z,32.60
2018-08-09T10:36:41.467Z,32.70
2018-08-09T10:39:10.249Z,32.90
2018-08-09T10:41:37.562Z,32.90
2018-08-09T10:44:04.907Z,32.70
2018-08-09T10:46:32.312Z,32.60
2018-08-09T10:48:59.682Z,32.70
2018-08-09T10:51:27.083Z,33.00
2018-08-09T10:53:54.494Z,33.10
2018-08-09T10:56:21.892Z,33.20
2018-08-09T10:58:49.609Z,33.50
2018-08-09T11:01:16.952Z,33.60
2018-08-09T11:03:44.358Z,33.40
2018-08-09T11:06:11.746Z,33.00
2018-08-09T11:08:39.143Z,32.80
2018-08-09T11:11:12.899Z,32.70
2018-08-09T11:13:42.761Z,33.00
2018-08-09T11:16:10.865Z,33.00
2018-08-09T11:18:38.226Z,33.50
2018-08-09T11:21:06.013Z,33.60
2018-08-09T11:23:33.666Z,33.40
2018-08-09T11:26:01.055Z,33.40
2018-08-09T11:28:28.766Z,33.60
2018-08-09T11:30:56.203Z,33.80
2018-08-09T11:33:24.053Z,33.60
2018-08-09T11:35:52.615Z,33.80
2018-08-09T11:38:19.976Z,34.00
2018-08-09T11:40:47.444Z,34.10
2018-08-09T11:43:14.941Z,34.20
2018-08-09T11:45:43.229Z,34.00
2018-08-09T11:48:10.585Z,34.00
2018-08-09T11:50:37.919Z,34.00
2018-08-09T11:53:05.393Z,34.00
2018-08-09T11:55:33.099Z,33.90
2018-08-09T11:58:00.841Z,33.90
2018-08-09T12:00:28.237Z,34.00
2018-08-09T12:02:55.542Z,34.10
2018-08-09T12:05:22.930Z,34.00
2018-08-09T12:07:50.404Z,34.20
2018-08-09T12:10:17.838Z,34.30
2018-08-09T12:12:45.243Z,34.20
2018-08-09T12:15:12.798Z,33.90
2018-08-09T12:17:40.131Z,34.00
2018-08-09T12:20:07.637Z,34.10
2018-08-09T12:22:35.118Z,34.00
2018-08-09T12:25:02.666Z,34.20
2018-08-09T12:27:30.118Z,34.20
2018-08-09T12:29:57.628Z,34.10
2018-08-09T12:32:25.070Z,34.30
2018-08-09T12:34:52.563Z,34.20
2018-08-09T12:37:19.942Z,34.00
2018-08-09T12:39:47.297Z,33.90
2018-08-09T12:42:14.679Z,33.80
2018-08-09T12:44:42.197Z,34.10
2018-08-09T12:47:09.634Z,34.00
2018-08-09T12:49:37.036Z,34.50
2018-08-09T12:52:04.705Z,34.50
2018-08-09T12:54:32.099Z,34.50
2018-08-09T12:56:59.586Z,34.80
2018-08-09T12:59:26.995Z,34.70
2018-08-09T13:01:54.369Z,35.00
2018-08-09T13:04:21.774Z,35.10
2018-08-09T13:06:49.127Z,34.50
2018-08-09T13:09:16.613Z,34.60
2018-08-09T13:11:44.068Z,34.70
2018-08-09T13:14:11.425Z,34.80
2018-08-09T13:16:38.917Z,34.50
2018-08-09T13:19:06.659Z,34.50
2018-08-09T13:21:34.061Z,34.70
2018-08-09T13:24:01.496Z,34.50
2018-08-09T13:26:29.000Z,34.40
2018-08-09T13:28:56.549Z,34.80
2018-08-09T13:31:23.915Z,34.60
2018-08-09T13:33:51.436Z,34.80
2018-08-09T13:36:19.007Z,34.80
2018-08-09T13:38:46.526Z,34.70
2018-08-09T13:41:13.948Z,34.40
2018-08-09T13:43:41.320Z,34.70
2018-08-09T13:46:08.737Z,34.90
2018-08-09T13:48:36.150Z,34.90
2018-08-09T13:51:03.567Z,34.90
2018-08-09T13:53:30.976Z,35.10
2018-08-09T13:55:58.404Z,34.70
2018-08-09T13:58:25.973Z,34.60
2018-08-09T14:00:53.470Z,34.90
2018-08-09T14:03:20.934Z,35.00
2018-08-09T14:05:48.343Z,35.10
2018-08-09T14:08:15.889Z,34.70
2018-08-09T14:10:43.353Z,35.00
2018-08-09T14:13:10.949Z,35.00
2018-08-09T14:15:38.349Z,35.00
2018-08-09T14:18:05.856Z,35.20
2018-08-09T14:20:33.413Z,35.20
2018-08-09T14:23:00.947Z,35.30
2018-08-09T14:25:28.559Z,34.90
2018-08-09T14:27:55.975Z,35.20
2018-08-09T14:30:23.378Z,35.00
2018-08-09T14:32:50.811Z,35.00
2018-08-09T14:35:18.315Z,35.20
2018-08-09T14:37:46.502Z,35.40
2018-08-09T14:40:14.561Z,35.40
2018-08-09T14:42:42.074Z,35.60
2018-08-09T14:45:11.757Z,35.60
2018-08-09T14:47:39.381Z,35.60
2018-08-09T14:50:07.067Z,35.70
2018-08-09T14:52:34.842Z,35.60
2018-08-09T14:55:02.414Z,35.70
2018-08-09T14:57:29.822Z,35.60
2018-08-09T14:59:57.756Z,35.80
2018-08-09T15:02:25.590Z,35.70
2018-08-09T15:04:53.029Z,35.30
2018-08-09T15:07:20.520Z,34.80
2018-08-09T15:09:47.894Z,34.80
2018-08-09T15:12:15.498Z,34.80
2018-08-09T15:14:42.938Z,35.00
2018-08-09T15:17:11.194Z,34.80
2018-08-09T15:19:38.714Z,34.70
2018-08-09T15:22:06.532Z,34.70
2018-08-09T15:24:34.044Z,34.20
2018-08-09T15:27:01.394Z,34.40
2018-08-09T15:29:29.076Z,34.50
2018-08-09T15:31:56.595Z,34.30
2018-08-09T15:34:24.034Z,34.40
2018-08-09T15:36:51.601Z,34.20
2018-08-09T15:39:19.069Z,34.20
2018-08-09T15:41:46.529Z,34.00
2018-08-09T15:44:14.050Z,33.80
2018-08-09T15:46:41.440Z,33.70
2018-08-09T15:49:09.092Z,32.60
2018-08-09T15:51:36.476Z,31.80
2018-08-09T15:54:03.956Z,31.70
2018-08-09T15:56:31.373Z,31.60
2018-08-09T15:58:59.177Z,31.20
2018-08-09T16:01:26.653Z,31.10
2018-08-09T16:03:55.106Z,30.80
2018-08-09T16:06:22.563Z,30.30
2018-08-09T16:08:49.914Z,30.10
2018-08-09T16:11:18.753Z,29.90
2018-08-09T16:13:46.702Z,30.00
2018-08-09T16:16:14.136Z,29.90
2018-08-09T16:18:41.589Z,29.70
2018-08-09T16:21:09.091Z,29.60
2018-08-09T16:23:36.572Z,29.30
2018-08-09T16:26:04.021Z,29.20
2018-08-09T16:28:32.031Z,29.20
2018-08-09T16:30:59.433Z,29.00
2018-08-09T16:33:26.779Z,28.90
2018-08-09T16:35:54.230Z,28.90
2018-08-09T16:38:21.683Z,28.90
2018-08-09T16:40:49.220Z,28.80
2018-08-09T16:43:16.667Z,28.90
2018-08-09T16:45:44.171Z,28.90
2018-08-09T16:48:11.609Z,28.80
2018-08-09T16:50:39.029Z,28.80
2018-08-09T16:53:06.453Z,28.60
2018-08-09T16:55:33.861Z,28.60
2018-08-09T16:58:01.415Z,28.60
2018-08-09T17:00:28.961Z,28.60
2018-08-09T17:02:56.459Z,28.60
2018-08-09T17:05:24.972Z,28.70
2018-08-09T17:07:52.925Z,28.80
2018-08-09T17:10:21.626Z,28.60
2018-08-09T17:12:49.166Z,28.40
2018-08-09T17:15:18.173Z,28.50
2018-08-09T17:17:45.594Z,28.40
2018-08-09T17:20:17.001Z,28.30
2018-08-09T17:22:44.413Z,28.30
2018-08-09T17:25:12.710Z,28.30
2018-08-09T17:27:41.243Z,28.30
2018-08-09T17:30:10.000Z,28.20
2018-08-09T17:32:37.506Z,28.20
2018-08-09T17:35:05.459Z,28.20
2018-08-09T17:37:32.933Z,28.30
2018-08-09T17:40:00.457Z,28.30
2018-08-09T17:42:27.974Z,28.10
2018-08-09T17:44:55.493Z,28.10
2018-08-09T17:47:22.969Z,28.00
2018-08-09T17:49:50.735Z,28.10
2018-08-09T17:52:18.322Z,28.00
2018-08-09T17:54:45.827Z,27.90
2018-08-09T17:57:13.381Z,27.80
2018-08-09T17:59:40.893Z,27.60
2018-08-09T18:02:08.629Z,27.30
2018-08-09T18:04:37.111Z,27.30
2018-08-09T18:07:04.705Z,27.20
2018-08-09T18:09:32.183Z,27.00
2018-08-09T18:11:59.781Z,26.90
2018-08-09T18:14:27.192Z,27.00
2018-08-09T18:16:54.649Z,26.60
2018-08-09T18:19:22.065Z,26.40
2018-08-09T18:21:49.475Z,26.60
2018-08-09T18:24:16.901Z,26.60
2018-08-09T18:26:44.411Z,26.50
2018-08-09T18:29:11.905Z,26.50
2018-08-09T18:31:39.386Z,26.20
2018-08-09T18:34:06.741Z,26.20
2018-08-09T18:36:34.216Z,26.10
2018-08-09T18:39:01.731Z,26.20
2018-08-09T18:41:29.150Z,26.30
2018-08-09T18:43:56.510Z,26.20
2018-08-09T18:46:24.070Z,26.20
2018-08-09T18:48:51.855Z,26.10
2018-08-09T18:51:19.405Z,26.10
2018-08-09T18:53:46.859Z,26.10
2018-08-09T18:56:14.362Z,26.00
2018-08-09T18:58:41.820Z,26.10
2018-08-09T19:01:09.358Z,26.20
2018-08-09T19:03:36.789Z,26.00
2018-08-09T19:06:04.512Z,25.90
2018-08-09T19:10:06.768Z,26.00
2018-08-09T19:15:37.215Z,25.60
2018-08-09T19:18:05.170Z,25.70
2018-08-09T19:20:34.166Z,25.70
2018-08-09T19:23:01.881Z,25.60
2018-08-09T19:25:29.319Z,25.50
2018-08-09T19:27:56.998Z,25.40
2018-08-09T19:30:25.991Z,25.40
2018-08-09T19:32:53.475Z,25.40
2018-08-09T19:35:21.558Z,25.30
2018-08-09T19:37:49.114Z,25.30
2018-08-09T19:40:19.796Z,25.40
2018-08-09T19:42:47.289Z,25.40
2018-08-09T19:45:15.978Z,25.40
2018-08-09T19:47:43.478Z,25.50
2018-08-09T19:50:12.917Z,25.50
2018-08-09T19:52:40.369Z,25.40
2018-08-09T19:55:10.351Z,25.40
2018-08-09T19:57:38.375Z,25.30
2018-08-09T20:00:08.869Z,25.30
2018-08-09T20:02:36.393Z,25.30
2018-08-09T20:05:04.977Z,25.30
2018-08-09T20:07:32.878Z,25.20
2018-08-09T20:10:00.367Z,25.20
2018-08-09T20:12:27.849Z,25.30
2018-08-09T20:14:55.253Z,25.30
2018-08-09T20:17:22.659Z,25.30
2018-08-09T20:19:50.031Z,25.30
2018-08-09T20:22:17.831Z,25.10
2018-08-09T20:24:45.785Z,25.10
2018-08-09T20:27:13.579Z,25.00
2018-08-09T20:29:41.130Z,25.00
2018-08-09T20:32:08.670Z,25.10
2018-08-09T20:34:36.104Z,25.10
2018-08-09T20:37:04.143Z,25.00
2018-08-09T20:39:31.672Z,25.00
2018-08-09T20:41:59.063Z,25.00
2018-08-09T20:44:26.484Z,25.00
2018-08-09T20:46:53.882Z,25.00
2018-08-09T20:49:21.393Z,24.80
2018-08-09T20:51:48.846Z,24.80
2018-08-09T20:54:16.263Z,24.80
2018-08-09T20:56:43.673Z,24.70
2018-08-09T20:59:11.051Z,24.60
2018-08-09T21:01:38.528Z,24.60
2018-08-09T21:04:06.804Z,24.60
2018-08-09T21:06:34.310Z,24.60
2018-08-09T21:09:01.951Z,24.60
2018-08-09T21:11:29.545Z,24.60
2018-08-09T21:13:57.023Z,24.70
2018-08-09T21:16:24.621Z,24.50
2018-08-09T21:18:52.262Z,24.60
2018-08-09T21:21:19.724Z,24.50
2018-08-09T21:23:47.235Z,24.40
2018-08-09T21:26:14.700Z,24.50
2018-08-09T21:28:42.151Z,24.40
2018-08-09T21:31:09.626Z,24.30
2018-08-09T21:33:37.106Z,24.50
2018-08-09T21:36:04.532Z,24.40
2018-08-09T21:38:32.080Z,24.30
2018-08-09T21:40:59.446Z,24.30
2018-08-09T21:43:26.900Z,24.30
2018-08-09T21:45:54.354Z,24.30
2018-08-09T21:48:21.944Z,24.20
2018-08-09T21:50:49.445Z,24.10
2018-08-09T21:53:16.851Z,24.10
2018-08-09T21:55:44.291Z,23.90
2018-08-09T21:58:11.656Z,24.10
2018-08-09T22:00:52.000Z,23.90
2018-08-09T22:03:21.431Z,23.90
2018-08-09T22:05:54.799Z,23.80
2018-08-09T22:08:28.001Z,23.70
2018-08-09T22:11:01.568Z,23.80
2018-08-09T22:13:34.898Z,23.60
2018-08-09T22:16:08.597Z,23.70
2018-08-09T22:18:41.782Z,23.60
2018-08-09T22:21:14.753Z,23.70
2018-08-09T22:23:42.291Z,23.60
2018-08-09T22:26:10.218Z,23.70
2018-08-09T22:28:37.657Z,23.50
2018-08-09T22:31:05.161Z,23.50
2018-08-09T22:33:33.017Z,23.70
2018-08-09T22:36:00.411Z,23.40
2018-08-09T22:38:28.345Z,23.60
2018-08-09T22:40:55.787Z,23.70
2018-08-09T22:43:23.217Z,23.60
2018-08-09T22:45:50.670Z,23.50
2018-08-09T22:48:18.117Z,23.50
2018-08-09T22:50:45.554Z,23.40
2018-08-09T22:53:13.541Z,23.50
2018-08-09T22:55:41.073Z,23.50
2018-08-09T22:58:08.492Z,23.50
2018-08-09T23:00:35.991Z,23.70
2018-08-09T23:03:04.745Z,23.60
2018-08-09T23:05:32.188Z,23.60
2018-08-09T23:07:59.534Z,23.60
2018-08-09T23:10:26.972Z,23.60
2018-08-09T23:12:54.443Z,23.30
2018-08-09T23:15:21.837Z,23.40
2018-08-09T23:17:49.317Z,23.50
2018-08-09T23:20:16.793Z,23.50
2018-08-09T23:22:44.142Z,23.40
2018-08-09T23:25:13.011Z,23.30
2018-08-09T23:27:41.016Z,23.30
2018-08-09T23:30:09.535Z,23.40
2018-08-09T23:32:37.218Z,23.50
2018-08-09T23:35:06.188Z,23.20
2018-08-09T23:37:33.765Z,23.20
2018-08-09T23:40:01.211Z,23.30
2018-08-09T23:42:28.555Z,23.30
2018-08-09T23:44:56.052Z,23.20
2018-08-09T23:47:23.493Z,23.20
2018-08-09T23:49:50.908Z,23.30
2018-08-09T23:52:18.319Z,23.10
2018-08-09T23:54:45.788Z,23.20
2018-08-09T23:57:13.252Z,23.20
2018-08-09T23:59:40.709Z,23.10
